sensor_id;sensor_type;location;lat;lon;timestamp;pressure;altitude;pressure_sealevel;temperature;humidity
75555;BME280;66087;53.126;17.960;2023-04-24T00:01:56;99827.84;;;13.68;74.72
75555;BME280;66087;53.126;17.960;2023-04-24T00:04:23;99828.47;;;13.68;74.72
75555;BME280;66087;53.126;17.960;2023-04-24T00:06:52;99828.90;;;13.69;74.92
75555;BME280;66087;53.126;17.960;2023-04-24T00:09:24;99828.02;;;13.71;75.02
75555;BME280;66087;53.126;17.960;2023-04-24T00:11:50;99824.64;;;13.72;74.89
75555;BME280;66087;53.126;17.960;2023-04-24T00:14:16;99819.63;;;13.74;74.83
75555;BME280;66087;53.126;17.960;2023-04-24T00:16:42;99817.39;;;13.77;74.74
75555;BME280;66087;53.126;17.960;2023-04-24T00:19:09;99818.96;;;13.80;74.98
75555;BME280;66087;53.126;17.960;2023-04-24T00:21:35;99819.14;;;13.79;75.13
75555;BME280;66087;53.126;17.960;2023-04-24T00:24:02;99812.35;;;13.77;75.20
75555;BME280;66087;53.126;17.960;2023-04-24T00:26:28;99809.80;;;13.74;75.09
75555;BME280;66087;53.126;17.960;2023-04-24T00:28:54;99812.58;;;13.73;75.00
75555;BME280;66087;53.126;17.960;2023-04-24T00:31:20;99808.75;;;13.71;75.01
75555;BME280;66087;53.126;17.960;2023-04-24T00:33:48;99805.86;;;13.71;75.10
75555;BME280;66087;53.126;17.960;2023-04-24T00:36:14;99802.31;;;13.72;75.25
75555;BME280;66087;53.126;17.960;2023-04-24T00:38:40;99803.20;;;13.73;75.41
75555;BME280;66087;53.126;17.960;2023-04-24T00:41:07;99796.49;;;13.73;75.18
75555;BME280;66087;53.126;17.960;2023-04-24T00:43:34;99788.70;;;13.75;75.17
75555;BME280;66087;53.126;17.960;2023-04-24T00:46:20;99787.88;;;13.76;75.41
75555;BME280;66087;53.126;17.960;2023-04-24T00:48:47;99786.26;;;13.73;75.70
75555;BME280;66087;53.126;17.960;2023-04-24T00:51:13;99791.25;;;13.69;75.48
75555;BME280;66087;53.126;17.960;2023-04-24T00:53:39;99791.67;;;13.67;75.40
75555;BME280;66087;53.126;17.960;2023-04-24T00:56:05;99792.85;;;13.65;75.48
75555;BME280;66087;53.126;17.960;2023-04-24T00:58:31;99790.57;;;13.63;75.53
75555;BME280;66087;53.126;17.960;2023-04-24T01:00:59;99789.89;;;13.62;75.72
75555;BME280;66087;53.126;17.960;2023-04-24T01:03:29;99786.64;;;13.62;75.71
75555;BME280;66087;53.126;17.960;2023-04-24T01:05:56;99786.86;;;13.62;75.63
75555;BME280;66087;53.126;17.960;2023-04-24T01:08:26;99784.55;;;13.63;75.74
75555;BME280;66087;53.126;17.960;2023-04-24T01:10:54;99784.92;;;13.64;75.62
75555;BME280;66087;53.126;17.960;2023-04-24T01:13:22;99783.56;;;13.65;75.70
75555;BME280;66087;53.126;17.960;2023-04-24T01:16:09;99784.59;;;13.64;75.62
75555;BME280;66087;53.126;17.960;2023-04-24T01:18:35;99782.31;;;13.63;75.64
75555;BME280;66087;53.126;17.960;2023-04-24T01:21:08;99775.85;;;13.62;75.65
75555;BME280;66087;53.126;17.960;2023-04-24T01:23:34;99769.34;;;13.63;75.68
75555;BME280;66087;53.126;17.960;2023-04-24T01:26:01;99769.63;;;13.64;75.73
75555;BME280;66087;53.126;17.960;2023-04-24T01:28:29;99768.58;;;13.65;75.86
75555;BME280;66087;53.126;17.960;2023-04-24T01:30:57;99767.02;;;13.64;75.93
75555;BME280;66087;53.126;17.960;2023-04-24T01:33:24;99767.45;;;13.64;75.83
75555;BME280;66087;53.126;17.960;2023-04-24T01:35:50;99768.93;;;13.62;75.82
75555;BME280;66087;53.126;17.960;2023-04-24T01:38:16;99770.95;;;13.60;76.13
75555;BME280;66087;53.126;17.960;2023-04-24T01:40:43;99770.24;;;13.58;75.98
75555;BME280;66087;53.126;17.960;2023-04-24T01:43:09;99765.23;;;13.57;76.13
75555;BME280;66087;53.126;17.960;2023-04-24T01:45:35;99762.65;;;13.55;76.30
75555;BME280;66087;53.126;17.960;2023-04-24T01:48:04;99762.77;;;13.54;76.12
75555;BME280;66087;53.126;17.960;2023-04-24T01:50:31;99762.00;;;13.55;76.17
75555;BME280;66087;53.126;17.960;2023-04-24T01:52:57;99760.16;;;13.55;76.18
75555;BME280;66087;53.126;17.960;2023-04-24T01:55:23;99763.71;;;13.55;76.25
75555;BME280;66087;53.126;17.960;2023-04-24T01:57:52;99761.85;;;13.55;76.23
75555;BME280;66087;53.126;17.960;2023-04-24T02:00:21;99763.14;;;13.54;76.28
75555;BME280;66087;53.126;17.960;2023-04-24T02:02:48;99762.92;;;13.56;76.25
75555;BME280;66087;53.126;17.960;2023-04-24T02:05:14;99762.67;;;13.56;76.33
75555;BME280;66087;53.126;17.960;2023-04-24T02:07:41;99757.57;;;13.57;76.32
75555;BME280;66087;53.126;17.960;2023-04-24T02:10:09;99757.61;;;13.58;76.32
75555;BME280;66087;53.126;17.960;2023-04-24T02:12:36;99756.77;;;13.57;76.31
75555;BME280;66087;53.126;17.960;2023-04-24T02:15:03;99757.29;;;13.58;76.20
75555;BME280;66087;53.126;17.960;2023-04-24T02:17:30;99755.11;;;13.58;76.20
75555;BME280;66087;53.126;17.960;2023-04-24T02:19:57;99749.09;;;13.58;76.18
75555;BME280;66087;53.126;17.960;2023-04-24T02:22:23;99739.67;;;13.57;76.25
75555;BME280;66087;53.126;17.960;2023-04-24T02:24:49;99738.08;;;13.58;76.25
75555;BME280;66087;53.126;17.960;2023-04-24T02:27:15;99734.81;;;13.58;76.36
75555;BME280;66087;53.126;17.960;2023-04-24T02:29:41;99737.66;;;13.57;76.26
75555;BME280;66087;53.126;17.960;2023-04-24T02:32:07;99736.45;;;13.56;76.16
75555;BME280;66087;53.126;17.960;2023-04-24T02:34:37;99738.36;;;13.57;76.31
75555;BME280;66087;53.126;17.960;2023-04-24T02:37:03;99741.70;;;13.57;76.23
75555;BME280;66087;53.126;17.960;2023-04-24T02:39:29;99740.52;;;13.58;76.13
75555;BME280;66087;53.126;17.960;2023-04-24T02:41:56;99735.35;;;13.58;76.23
75555;BME280;66087;53.126;17.960;2023-04-24T02:44:22;99727.73;;;13.60;76.12
75555;BME280;66087;53.126;17.960;2023-04-24T02:46:49;99723.63;;;13.60;76.21
75555;BME280;66087;53.126;17.960;2023-04-24T02:49:16;99720.46;;;13.59;76.12
75555;BME280;66087;53.126;17.960;2023-04-24T02:51:41;99717.34;;;13.58;76.22
75555;BME280;66087;53.126;17.960;2023-04-24T02:54:08;99717.67;;;13.57;76.21
75555;BME280;66087;53.126;17.960;2023-04-24T02:56:35;99717.33;;;13.56;76.02
75555;BME280;66087;53.126;17.960;2023-04-24T02:59:03;99721.43;;;13.57;76.00
75555;BME280;66087;53.126;17.960;2023-04-24T03:01:29;99721.20;;;13.57;75.93
75555;BME280;66087;53.126;17.960;2023-04-24T03:03:55;99724.07;;;13.57;75.92
75555;BME280;66087;53.126;17.960;2023-04-24T03:06:21;99727.71;;;13.56;75.92
75555;BME280;66087;53.126;17.960;2023-04-24T03:08:49;99726.30;;;13.54;75.90
75555;BME280;66087;53.126;17.960;2023-04-24T03:11:15;99725.96;;;13.51;75.89
75555;BME280;66087;53.126;17.960;2023-04-24T03:13:41;99727.14;;;13.47;75.94
75555;BME280;66087;53.126;17.960;2023-04-24T03:16:08;99724.85;;;13.43;76.07
75555;BME280;66087;53.126;17.960;2023-04-24T03:18:55;99729.51;;;13.40;75.96
75555;BME280;66087;53.126;17.960;2023-04-24T03:21:23;99732.86;;;13.36;76.30
75555;BME280;66087;53.126;17.960;2023-04-24T03:23:49;99730.91;;;13.32;76.42
75555;BME280;66087;53.126;17.960;2023-04-24T03:26:16;99735.35;;;13.28;76.73
75555;BME280;66087;53.126;17.960;2023-04-24T03:28:53;99736.70;;;13.25;76.74
75555;BME280;66087;53.126;17.960;2023-04-24T03:31:19;99734.87;;;13.22;76.81
75555;BME280;66087;53.126;17.960;2023-04-24T03:33:47;99735.69;;;13.19;76.73
75555;BME280;66087;53.126;17.960;2023-04-24T03:36:13;99738.97;;;13.17;76.86
75555;BME280;66087;53.126;17.960;2023-04-24T03:38:40;99737.56;;;13.15;76.80
75555;BME280;66087;53.126;17.960;2023-04-24T03:41:19;99736.16;;;13.13;76.79
75555;BME280;66087;53.126;17.960;2023-04-24T03:43:49;99734.38;;;13.10;76.90
75555;BME280;66087;53.126;17.960;2023-04-24T03:46:15;99726.85;;;13.10;76.84
75555;BME280;66087;53.126;17.960;2023-04-24T03:48:46;99724.73;;;13.10;76.73
75555;BME280;66087;53.126;17.960;2023-04-24T03:51:13;99728.92;;;13.11;77.01
75555;BME280;66087;53.126;17.960;2023-04-24T03:53:41;99726.49;;;13.11;77.15
75555;BME280;66087;53.126;17.960;2023-04-24T03:56:08;99719.95;;;13.11;77.32
75555;BME280;66087;53.126;17.960;2023-04-24T03:58:35;99719.96;;;13.10;77.33
75555;BME280;66087;53.126;17.960;2023-04-24T04:01:01;99713.41;;;13.10;77.42
75555;BME280;66087;53.126;17.960;2023-04-24T04:03:38;99711.41;;;13.09;77.45
75555;BME280;66087;53.126;17.960;2023-04-24T04:06:04;99708.61;;;13.09;77.44
75555;BME280;66087;53.126;17.960;2023-04-24T04:08:30;99704.83;;;13.10;77.72
75555;BME280;66087;53.126;17.960;2023-04-24T04:10:57;99700.99;;;13.13;77.81
75555;BME280;66087;53.126;17.960;2023-04-24T04:13:23;99703.41;;;13.15;77.93
75555;BME280;66087;53.126;17.960;2023-04-24T04:15:49;99705.79;;;13.18;77.62
75555;BME280;66087;53.126;17.960;2023-04-24T04:18:16;99701.35;;;13.19;77.62
75555;BME280;66087;53.126;17.960;2023-04-24T04:20:42;99702.39;;;13.21;77.67
75555;BME280;66087;53.126;17.960;2023-04-24T04:23:29;99702.23;;;13.21;77.74
75555;BME280;66087;53.126;17.960;2023-04-24T04:26:06;99700.02;;;13.24;77.82
75555;BME280;66087;53.126;17.960;2023-04-24T04:28:43;99694.87;;;13.28;77.70
75555;BME280;66087;53.126;17.960;2023-04-24T04:31:11;99689.61;;;13.31;77.95
75555;BME280;66087;53.126;17.960;2023-04-24T04:33:37;99686.87;;;13.35;78.06
75555;BME280;66087;53.126;17.960;2023-04-24T04:36:05;99690.66;;;13.42;77.98
75555;BME280;66087;53.126;17.960;2023-04-24T04:38:33;99697.58;;;13.48;78.08
75555;BME280;66087;53.126;17.960;2023-04-24T04:41:15;99698.46;;;13.54;78.17
75555;BME280;66087;53.126;17.960;2023-04-24T04:43:45;99701.61;;;13.57;78.17
75555;BME280;66087;53.126;17.960;2023-04-24T04:46:12;99700.11;;;13.63;77.88
75555;BME280;66087;53.126;17.960;2023-04-24T04:48:56;99700.91;;;13.66;77.79
75555;BME280;66087;53.126;17.960;2023-04-24T04:51:42;99691.84;;;13.70;77.63
75555;BME280;66087;53.126;17.960;2023-04-24T04:54:08;99688.45;;;13.77;77.57
75555;BME280;66087;53.126;17.960;2023-04-24T04:56:35;99683.52;;;13.83;77.86
75555;BME280;66087;53.126;17.960;2023-04-24T04:59:02;99676.70;;;13.86;77.86
75555;BME280;66087;53.126;17.960;2023-04-24T05:01:27;99681.34;;;13.90;77.82
75555;BME280;66087;53.126;17.960;2023-04-24T05:03:54;99678.98;;;14.02;77.67
75555;BME280;66087;53.126;17.960;2023-04-24T05:06:20;99676.28;;;14.14;77.48
75555;BME280;66087;53.126;17.960;2023-04-24T05:08:46;99673.00;;;14.21;77.38
75555;BME280;66087;53.126;17.960;2023-04-24T05:11:24;99671.63;;;14.29;77.38
75555;BME280;66087;53.126;17.960;2023-04-24T05:13:53;99672.59;;;14.38;77.19
75555;BME280;66087;53.126;17.960;2023-04-24T05:16:24;99671.92;;;14.49;77.07
75555;BME280;66087;53.126;17.960;2023-04-24T05:18:51;99671.72;;;14.56;77.23
75555;BME280;66087;53.126;17.960;2023-04-24T05:21:19;99665.92;;;14.65;76.96
75555;BME280;66087;53.126;17.960;2023-04-24T05:23:49;99668.96;;;14.75;76.79
75555;BME280;66087;53.126;17.960;2023-04-24T05:26:20;99664.40;;;14.88;76.57
75555;BME280;66087;53.126;17.960;2023-04-24T05:28:46;99665.33;;;15.00;76.10
75555;BME280;66087;53.126;17.960;2023-04-24T05:31:12;99666.33;;;15.11;76.04
75555;BME280;66087;53.126;17.960;2023-04-24T05:33:39;99667.88;;;15.24;75.86
75555;BME280;66087;53.126;17.960;2023-04-24T05:36:06;99670.42;;;15.33;75.64
75555;BME280;66087;53.126;17.960;2023-04-24T05:38:32;99674.20;;;15.41;75.61
75555;BME280;66087;53.126;17.960;2023-04-24T05:41:03;99675.33;;;15.49;75.56
75555;BME280;66087;53.126;17.960;2023-04-24T05:43:30;99669.30;;;15.51;75.71
75555;BME280;66087;53.126;17.960;2023-04-24T05:45:56;99667.52;;;15.53;75.38
75555;BME280;66087;53.126;17.960;2023-04-24T05:48:23;99670.14;;;15.56;74.97
75555;BME280;66087;53.126;17.960;2023-04-24T05:50:50;99670.11;;;15.58;74.65
75555;BME280;66087;53.126;17.960;2023-04-24T05:53:16;99670.23;;;15.60;74.46
75555;BME280;66087;53.126;17.960;2023-04-24T05:55:42;99664.21;;;15.60;74.28
75555;BME280;66087;53.126;17.960;2023-04-24T05:58:09;99661.72;;;15.60;73.97
75555;BME280;66087;53.126;17.960;2023-04-24T06:00:46;99665.46;;;15.62;73.67
75555;BME280;66087;53.126;17.960;2023-04-24T06:03:17;99664.98;;;15.65;73.56
75555;BME280;66087;53.126;17.960;2023-04-24T06:05:43;99668.69;;;15.71;73.42
75555;BME280;66087;53.126;17.960;2023-04-24T06:08:09;99673.39;;;15.79;73.26
75555;BME280;66087;53.126;17.960;2023-04-24T06:10:38;99673.77;;;15.85;73.07
75555;BME280;66087;53.126;17.960;2023-04-24T06:13:06;99669.90;;;15.92;72.88
75555;BME280;66087;53.126;17.960;2023-04-24T06:15:37;99664.34;;;16.02;73.01
75555;BME280;66087;53.126;17.960;2023-04-24T06:18:06;99658.92;;;16.11;72.79
75555;BME280;66087;53.126;17.960;2023-04-24T06:20:33;99657.09;;;16.19;72.83
75555;BME280;66087;53.126;17.960;2023-04-24T06:23:01;99650.59;;;16.29;72.47
75555;BME280;66087;53.126;17.960;2023-04-24T06:25:28;99649.30;;;16.41;72.19
75555;BME280;66087;53.126;17.960;2023-04-24T06:28:14;99646.98;;;16.54;72.24
75555;BME280;66087;53.126;17.960;2023-04-24T06:30:45;99644.61;;;16.66;71.92
75555;BME280;66087;53.126;17.960;2023-04-24T06:33:11;99643.20;;;16.73;71.84
75555;BME280;66087;53.126;17.960;2023-04-24T06:35:37;99640.86;;;16.80;71.60
75555;BME280;66087;53.126;17.960;2023-04-24T06:38:24;99639.42;;;16.83;71.20
75555;BME280;66087;53.126;17.960;2023-04-24T06:40:50;99634.74;;;16.81;71.04
75555;BME280;66087;53.126;17.960;2023-04-24T06:43:17;99634.67;;;16.77;70.90
75555;BME280;66087;53.126;17.960;2023-04-24T06:45:44;99633.40;;;16.75;70.58
75555;BME280;66087;53.126;17.960;2023-04-24T06:48:11;99631.81;;;16.73;70.47
75555;BME280;66087;53.126;17.960;2023-04-24T06:50:37;99634.27;;;16.77;70.56
75555;BME280;66087;53.126;17.960;2023-04-24T06:53:03;99630.18;;;16.86;70.28
75555;BME280;66087;53.126;17.960;2023-04-24T06:55:29;99629.90;;;16.97;69.78
75555;BME280;66087;53.126;17.960;2023-04-24T06:57:55;99631.20;;;17.05;69.42
75555;BME280;66087;53.126;17.960;2023-04-24T07:00:21;99632.59;;;17.13;69.08
75555;BME280;66087;53.126;17.960;2023-04-24T07:02:49;99630.11;;;17.25;69.07
75555;BME280;66087;53.126;17.960;2023-04-24T07:05:15;99630.10;;;17.35;68.29
75555;BME280;66087;53.126;17.960;2023-04-24T07:07:41;99634.01;;;17.43;68.16
75555;BME280;66087;53.126;17.960;2023-04-24T07:10:09;99634.73;;;17.49;67.53
75555;BME280;66087;53.126;17.960;2023-04-24T07:12:35;99627.95;;;17.50;66.52
75555;BME280;66087;53.126;17.960;2023-04-24T07:15:01;99630.25;;;17.46;66.46
75555;BME280;66087;53.126;17.960;2023-04-24T07:17:27;99628.85;;;17.46;66.28
75555;BME280;66087;53.126;17.960;2023-04-24T07:19:56;99627.52;;;17.43;65.45
75555;BME280;66087;53.126;17.960;2023-04-24T07:22:32;99628.92;;;17.42;65.55
75555;BME280;66087;53.126;17.960;2023-04-24T07:25:10;99625.98;;;17.44;65.05
75555;BME280;66087;53.126;17.960;2023-04-24T07:27:40;99625.05;;;17.49;64.37
75555;BME280;66087;53.126;17.960;2023-04-24T07:30:06;99620.62;;;17.55;63.08
75555;BME280;66087;53.126;17.960;2023-04-24T07:32:35;99622.23;;;17.58;62.58
75555;BME280;66087;53.126;17.960;2023-04-24T07:35:02;99620.86;;;17.64;61.63
75555;BME280;66087;53.126;17.960;2023-04-24T07:37:28;99620.13;;;17.69;61.88
75555;BME280;66087;53.126;17.960;2023-04-24T07:39:55;99615.02;;;17.77;60.74
75555;BME280;66087;53.126;17.960;2023-04-24T07:42:22;99611.29;;;17.87;59.63
75555;BME280;66087;53.126;17.960;2023-04-24T07:44:52;99615.67;;;17.99;60.22
75555;BME280;66087;53.126;17.960;2023-04-24T07:47:18;99612.85;;;18.17;60.37
75555;BME280;66087;53.126;17.960;2023-04-24T07:49:44;99616.34;;;18.29;59.31
75555;BME280;66087;53.126;17.960;2023-04-24T07:52:11;99618.52;;;18.39;59.02
75555;BME280;66087;53.126;17.960;2023-04-24T07:54:38;99618.71;;;18.48;58.85
75555;BME280;66087;53.126;17.960;2023-04-24T07:57:07;99622.64;;;18.60;58.80
75555;BME280;66087;53.126;17.960;2023-04-24T07:59:36;99623.77;;;18.71;58.16
75555;BME280;66087;53.126;17.960;2023-04-24T08:02:08;99619.98;;;18.79;57.12
75555;BME280;66087;53.126;17.960;2023-04-24T08:04:35;99618.30;;;18.81;57.19
75555;BME280;66087;53.126;17.960;2023-04-24T08:07:02;99619.50;;;18.88;56.99
75555;BME280;66087;53.126;17.960;2023-04-24T08:09:28;99614.37;;;18.92;56.21
75555;BME280;66087;53.126;17.960;2023-04-24T08:11:56;99610.38;;;18.93;55.80
75555;BME280;66087;53.126;17.960;2023-04-24T08:14:23;99612.43;;;19.07;55.69
75555;BME280;66087;53.126;17.960;2023-04-24T08:16:56;99616.79;;;19.25;55.67
75555;BME280;66087;53.126;17.960;2023-04-24T08:19:25;99616.75;;;19.44;55.22
75555;BME280;66087;53.126;17.960;2023-04-24T08:21:51;99614.14;;;19.59;54.27
75555;BME280;66087;53.126;17.960;2023-04-24T08:24:18;99612.75;;;19.74;53.36
75555;BME280;66087;53.126;17.960;2023-04-24T08:26:43;99611.02;;;19.84;54.10
75555;BME280;66087;53.126;17.960;2023-04-24T08:29:09;99611.29;;;20.02;53.42
75555;BME280;66087;53.126;17.960;2023-04-24T08:31:40;99609.65;;;20.11;53.03
75555;BME280;66087;53.126;17.960;2023-04-24T08:34:29;99607.95;;;20.14;52.59
75555;BME280;66087;53.126;17.960;2023-04-24T08:37:25;99609.69;;;20.06;52.35
75555;BME280;66087;53.126;17.960;2023-04-24T08:40:01;99606.58;;;20.06;52.86
75555;BME280;66087;53.126;17.960;2023-04-24T08:42:30;99603.77;;;20.05;51.92
75555;BME280;66087;53.126;17.960;2023-04-24T08:44:59;99601.63;;;19.93;51.45
75555;BME280;66087;53.126;17.960;2023-04-24T08:47:25;99597.33;;;19.81;51.37
75555;BME280;66087;53.126;17.960;2023-04-24T08:49:55;99597.10;;;19.77;51.44
75555;BME280;66087;53.126;17.960;2023-04-24T08:52:22;99597.27;;;19.78;50.62
75555;BME280;66087;53.126;17.960;2023-04-24T08:54:49;99599.67;;;19.76;50.19
75555;BME280;66087;53.126;17.960;2023-04-24T08:57:17;99597.86;;;19.80;50.63
75555;BME280;66087;53.126;17.960;2023-04-24T08:59:47;99600.67;;;19.91;49.80
75555;BME280;66087;53.126;17.960;2023-04-24T09:02:18;99598.66;;;19.94;49.90
75555;BME280;66087;53.126;17.960;2023-04-24T09:04:45;99598.32;;;19.98;49.95
75555;BME280;66087;53.126;17.960;2023-04-24T09:07:14;99595.46;;;19.94;49.90
75555;BME280;66087;53.126;17.960;2023-04-24T09:09:55;99604.15;;;20.02;50.00
75555;BME280;66087;53.126;17.960;2023-04-24T09:12:31;99607.71;;;20.03;49.33
75555;BME280;66087;53.126;17.960;2023-04-24T09:15:03;99595.46;;;19.94;49.13
75555;BME280;66087;53.126;17.960;2023-04-24T09:17:31;99612.08;;;20.01;48.96
75555;BME280;66087;53.126;17.960;2023-04-24T09:19:59;99610.52;;;20.01;49.50
75555;BME280;66087;53.126;17.960;2023-04-24T09:22:37;99612.81;;;20.13;48.93
75555;BME280;66087;53.126;17.960;2023-04-24T09:25:12;99610.15;;;20.13;48.72
75555;BME280;66087;53.126;17.960;2023-04-24T09:27:42;99605.95;;;20.15;49.14
75555;BME280;66087;53.126;17.960;2023-04-24T09:30:10;99606.40;;;20.24;49.37
75555;BME280;66087;53.126;17.960;2023-04-24T09:32:46;99609.42;;;20.37;49.39
75555;BME280;66087;53.126;17.960;2023-04-24T09:35:14;99605.60;;;20.42;49.21
75555;BME280;66087;53.126;17.960;2023-04-24T09:37:43;99602.30;;;20.51;49.15
75555;BME280;66087;53.126;17.960;2023-04-24T09:40:15;99599.19;;;20.58;49.22
75555;BME280;66087;53.126;17.960;2023-04-24T09:42:45;99591.15;;;20.63;48.72
75555;BME280;66087;53.126;17.960;2023-04-24T09:45:18;99588.19;;;20.65;48.68
75555;BME280;66087;53.126;17.960;2023-04-24T09:47:44;99590.15;;;20.64;48.33
75555;BME280;66087;53.126;17.960;2023-04-24T09:50:15;99589.34;;;20.65;48.66
75555;BME280;66087;53.126;17.960;2023-04-24T09:52:43;99586.94;;;20.68;48.03
75555;BME280;66087;53.126;17.960;2023-04-24T09:55:15;99586.43;;;20.66;48.09
75555;BME280;66087;53.126;17.960;2023-04-24T09:57:52;99584.07;;;20.63;48.14
75555;BME280;66087;53.126;17.960;2023-04-24T10:00:25;99586.84;;;20.69;48.24
75555;BME280;66087;53.126;17.960;2023-04-24T10:03:01;99587.13;;;20.74;47.56
75555;BME280;66087;53.126;17.960;2023-04-24T10:05:32;99581.50;;;20.72;47.34
75555;BME280;66087;53.126;17.960;2023-04-24T10:08:08;99574.31;;;20.79;47.46
75555;BME280;66087;53.126;17.960;2023-04-24T10:10:39;99576.09;;;21.00;47.27
75555;BME280;66087;53.126;17.960;2023-04-24T10:13:07;99572.83;;;21.12;46.90
75555;BME280;66087;53.126;17.960;2023-04-24T10:15:37;99569.98;;;21.21;46.85
75555;BME280;66087;53.126;17.960;2023-04-24T10:18:05;99569.85;;;21.35;46.94
75555;BME280;66087;53.126;17.960;2023-04-24T10:20:33;99560.77;;;21.53;46.90
75555;BME280;66087;53.126;17.960;2023-04-24T10:23:00;99563.88;;;21.77;46.77
75555;BME280;66087;53.126;17.960;2023-04-24T10:25:29;99568.45;;;21.93;46.04
75555;BME280;66087;53.126;17.960;2023-04-24T10:27:57;99570.71;;;21.89;45.74
75555;BME280;66087;53.126;17.960;2023-04-24T10:30:28;99569.85;;;21.93;46.16
75555;BME280;66087;53.126;17.960;2023-04-24T10:32:59;99572.84;;;22.14;45.97
75555;BME280;66087;53.126;17.960;2023-04-24T10:35:25;99572.23;;;22.41;45.87
75555;BME280;66087;53.126;17.960;2023-04-24T10:38:05;99570.66;;;22.74;45.31
75555;BME280;66087;53.126;17.960;2023-04-24T10:40:34;99566.04;;;23.10;45.11
75555;BME280;66087;53.126;17.960;2023-04-24T10:43:05;99571.11;;;23.34;44.63
75555;BME280;66087;53.126;17.960;2023-04-24T10:45:35;99567.84;;;23.48;44.51
75555;BME280;66087;53.126;17.960;2023-04-24T10:48:08;99564.85;;;23.56;43.76
75555;BME280;66087;53.126;17.960;2023-04-24T10:50:45;99568.11;;;23.55;43.94
75555;BME280;66087;53.126;17.960;2023-04-24T10:53:20;99565.66;;;23.49;43.00
75555;BME280;66087;53.126;17.960;2023-04-24T10:55:51;99567.05;;;23.36;43.56
75555;BME280;66087;53.126;17.960;2023-04-24T10:58:37;99568.92;;;23.40;43.71
75555;BME280;66087;53.126;17.960;2023-04-24T11:01:07;99567.36;;;23.46;43.12
75555;BME280;66087;53.126;17.960;2023-04-24T11:03:34;99572.04;;;23.43;42.86
75555;BME280;66087;53.126;17.960;2023-04-24T11:06:06;99571.86;;;23.45;42.54
75555;BME280;66087;53.126;17.960;2023-04-24T11:08:39;99571.32;;;23.44;42.98
75555;BME280;66087;53.126;17.960;2023-04-24T11:11:11;99567.56;;;23.59;43.06
75555;BME280;66087;53.126;17.960;2023-04-24T11:14:04;99564.98;;;23.63;42.48
75555;BME280;66087;53.126;17.960;2023-04-24T11:16:44;99565.85;;;23.65;42.18
75555;BME280;66087;53.126;17.960;2023-04-24T11:19:21;99567.66;;;23.78;42.38
75555;BME280;66087;53.126;17.960;2023-04-24T11:22:13;99567.71;;;23.85;41.66
75555;BME280;66087;53.126;17.960;2023-04-24T11:24:49;99567.00;;;23.96;41.67
75555;BME280;66087;53.126;17.960;2023-04-24T11:27:21;99565.56;;;24.01;41.69
75555;BME280;66087;53.126;17.960;2023-04-24T11:30:00;99570.98;;;23.90;42.26
75555;BME280;66087;53.126;17.960;2023-04-24T11:32:30;99578.91;;;23.86;42.41
75555;BME280;66087;53.126;17.960;2023-04-24T11:35:01;99571.80;;;23.78;41.89
75555;BME280;66087;53.126;17.960;2023-04-24T11:37:36;99573.32;;;23.53;40.34
75555;BME280;66087;53.126;17.960;2023-04-24T11:40:04;99576.86;;;23.29;40.33
75555;BME280;66087;53.126;17.960;2023-04-24T11:42:42;99579.04;;;23.28;40.58
75555;BME280;66087;53.126;17.960;2023-04-24T11:45:11;99574.39;;;23.37;40.13
75555;BME280;66087;53.126;17.960;2023-04-24T11:51:03;99569.70;;;23.52;39.91
75555;BME280;66087;53.126;17.960;2023-04-24T11:53:32;99572.78;;;23.72;40.35
75555;BME280;66087;53.126;17.960;2023-04-24T11:56:03;99574.39;;;23.91;40.22
75555;BME280;66087;53.126;17.960;2023-04-24T11:58:35;99564.73;;;23.92;39.22
75555;BME280;66087;53.126;17.960;2023-04-24T12:01:01;99567.40;;;23.93;39.68
75555;BME280;66087;53.126;17.960;2023-04-24T12:03:27;99564.92;;;23.76;39.13
75555;BME280;66087;53.126;17.960;2023-04-24T12:06:05;99566.46;;;23.70;39.34
75555;BME280;66087;53.126;17.960;2023-04-24T12:08:33;99562.82;;;23.58;39.98
75555;BME280;66087;53.126;17.960;2023-04-24T12:11:01;99568.19;;;23.65;39.97
75555;BME280;66087;53.126;17.960;2023-04-24T12:13:28;99558.35;;;23.68;39.94
75555;BME280;66087;53.126;17.960;2023-04-24T12:15:54;99554.09;;;23.77;39.70
75555;BME280;66087;53.126;17.960;2023-04-24T12:18:23;99554.77;;;23.67;38.94
75555;BME280;66087;53.126;17.960;2023-04-24T12:20:50;99558.69;;;23.13;40.01
75555;BME280;66087;53.126;17.960;2023-04-24T12:23:16;99576.85;;;22.76;41.46
75555;BME280;66087;53.126;17.960;2023-04-24T12:26:00;99579.89;;;22.40;43.09
75555;BME280;66087;53.126;17.960;2023-04-24T12:28:34;99572.17;;;22.21;43.37
75555;BME280;66087;53.126;17.960;2023-04-24T12:31:01;99565.56;;;22.50;43.52
75555;BME280;66087;53.126;17.960;2023-04-24T12:33:33;99559.30;;;23.12;42.99
75555;BME280;66087;53.126;17.960;2023-04-24T12:36:00;99555.70;;;23.31;42.28
75555;BME280;66087;53.126;17.960;2023-04-24T12:38:28;99557.29;;;23.16;42.53
75555;BME280;66087;53.126;17.960;2023-04-24T12:41:06;99555.38;;;22.92;43.18
75555;BME280;66087;53.126;17.960;2023-04-24T12:43:32;99558.49;;;22.89;43.32
75555;BME280;66087;53.126;17.960;2023-04-24T12:45:59;99559.87;;;23.01;43.38
75555;BME280;66087;53.126;17.960;2023-04-24T12:48:28;99550.34;;;23.19;43.29
75555;BME280;66087;53.126;17.960;2023-04-24T12:50:57;99547.05;;;23.59;43.05
75555;BME280;66087;53.126;17.960;2023-04-24T12:53:26;99550.23;;;24.00;42.70
75555;BME280;66087;53.126;17.960;2023-04-24T12:55:54;99550.77;;;24.26;42.85
75555;BME280;66087;53.126;17.960;2023-04-24T12:58:20;99546.79;;;24.36;41.98
75555;BME280;66087;53.126;17.960;2023-04-24T13:00:47;99541.98;;;24.32;42.04
75555;BME280;66087;53.126;17.960;2023-04-24T13:03:33;99543.41;;;24.11;41.81
75555;BME280;66087;53.126;17.960;2023-04-24T13:05:59;99541.78;;;23.98;41.46